Aviation Digital Data Service (ADDS)

Output produced by METARs form (1430 UTC 05 March 2015)
found at http://aviationweather.gov/adds/metars/
 
KBPT 051129Z 0512/0612 36023G30KT 6SM -RA BR OVC015 
     TEMPO 0512/0516 3SM RA BR SCT015 OVC025 
     FM051800 01021G28KT P6SM OVC025 
     FM052200 01017G24KT P6SM SCT250 
     FM060500 01014G20KT P6SM SKC